createdAt,value
2022-10-21T00:03:16.399Z,12.6
2022-10-21T00:18:28.756Z,12.6
2022-10-21T00:33:38.133Z,12.6
2022-10-21T00:48:47.517Z,12.6
2022-10-21T01:03:56.891Z,12.8
2022-10-21T01:19:06.510Z,12.9
2022-10-21T01:34:16.309Z,12.9
2022-10-21T01:49:25.687Z,12.9
2022-10-21T02:04:35.211Z,12.9
2022-10-21T02:19:45.105Z,12.9
2022-10-21T02:34:55.237Z,12.9
2022-10-21T02:50:04.301Z,12.8
2022-10-21T03:05:14.069Z,12.9
2022-10-21T03:20:23.625Z,12.9
2022-10-21T03:35:33.252Z,12.9
2022-10-21T03:50:42.354Z,12.9
2022-10-21T04:05:52.134Z,12.9
2022-10-21T04:21:02.266Z,13
2022-10-21T04:36:11.369Z,13
2022-10-21T04:51:20.569Z,13.1
2022-10-21T05:06:32.686Z,13.1
2022-10-21T05:21:42.316Z,13.1
2022-10-21T05:36:51.358Z,13.2
2022-10-21T05:52:00.812Z,13.2
2022-10-21T06:07:10.967Z,13.2
2022-10-21T06:22:20.717Z,13.2
2022-10-21T06:37:30.556Z,13.2
2022-10-21T06:52:39.924Z,13.2
2022-10-21T07:07:49.358Z,13.3
2022-10-21T07:22:58.417Z,13.4
2022-10-21T07:38:07.688Z,13.4
2022-10-21T07:53:17.335Z,13.6
2022-10-21T08:08:29.539Z,13.7
2022-10-21T08:23:39.288Z,13.9
2022-10-21T08:38:48.891Z,14.1
2022-10-21T08:53:58.890Z,14.3
2022-10-21T09:09:08.717Z,14.6
2022-10-21T09:24:20.711Z,14.8
2022-10-21T09:39:31.028Z,15.2
2022-10-21T09:54:40.495Z,15.5
2022-10-21T10:09:50.321Z,15.9
2022-10-21T10:24:59.928Z,16
2022-10-21T10:40:09.596Z,16.2
2022-10-21T10:55:21.444Z,16.2
2022-10-21T11:10:31.848Z,16.3
2022-10-21T11:25:42.221Z,16.4
2022-10-21T11:40:52.176Z,16.4
2022-10-21T11:56:02.247Z,16.4
2022-10-21T12:11:12.244Z,16.5
2022-10-21T12:26:22.412Z,16.5
2022-10-21T12:41:32.343Z,16.5
2022-10-21T12:56:42.929Z,16.5
2022-10-21T13:11:52.194Z,16.5
2022-10-21T13:27:01.856Z,16.4
2022-10-21T13:42:15.638Z,16.4
2022-10-21T13:57:34.491Z,16.4
2022-10-21T14:12:44.344Z,16.4
2022-10-21T14:27:53.766Z,16.3
2022-10-21T14:43:03.384Z,16.3
2022-10-21T14:58:13.877Z,16.2
2022-10-21T15:13:24.281Z,16.2
2022-10-21T15:28:33.757Z,16.1
2022-10-21T15:43:43.192Z,16.1
2022-10-21T15:58:53.263Z,16.1
2022-10-21T16:14:02.448Z,16
2022-10-21T16:29:14.543Z,15.9
2022-10-21T16:44:24.492Z,15.8
2022-10-21T16:59:34.560Z,15.7
2022-10-21T17:14:44.233Z,15.6
2022-10-21T17:29:53.842Z,15.5
2022-10-21T17:45:03.911Z,15.5
2022-10-21T18:00:13.900Z,15.5
2022-10-21T18:15:23.444Z,15.4
2022-10-21T18:30:32.962Z,15.3
2022-10-21T18:45:42.354Z,15.2
2022-10-21T19:00:52.099Z,15.1
2022-10-21T19:17:19.348Z,15.5
2022-10-21T19:32:29.542Z,15
2022-10-21T19:47:38.592Z,14.9
2022-10-21T20:02:48.167Z,14.7
2022-10-21T20:17:57.518Z,14.6
2022-10-21T20:33:07.171Z,14.6
2022-10-21T20:48:16.717Z,14.4
2022-10-21T21:03:26.178Z,14.4
2022-10-21T21:18:35.444Z,14.3
2022-10-21T21:33:44.824Z,14.7
2022-10-21T21:48:55.449Z,15.8
2022-10-21T22:04:16.400Z,16.7
2022-10-21T22:19:26.796Z,17.3
2022-10-21T22:34:35.780Z,16.7
2022-10-21T22:49:45.124Z,16.3
2022-10-21T23:04:54.340Z,15.7
2022-10-21T23:20:03.964Z,15.9
2022-10-21T23:35:13.527Z,15.9
2022-10-21T23:50:22.809Z,15.3
